Terminal Aerodrome Forecast
Issued by NWS

Home | Current Version | Previous Version | Graphics & Text | Print | Product List | Glossary On
Versions: 1 2 3 4 5 6 7 8 9 10 11 12 13 14 15 16
000
FTUS43 KIWX 121100
TAFSBN
TAF
KSBN 121120Z 1212/1312 17006KT P6SM BKN100
     FM121400 19009KT P6SM VCTS BKN035CB
     FM121800 20010KT P6SM BKN040
     FM130300 22008KT P6SM BKN070=

USA.gov is the U.S. government's official web portal to all federal, state and local government web resources and services.